LGX37B LIRP-LSZB
Flight info
| Callsign | LGX37B |
|---|---|
| Flight time | 0h 47m |
| Altitude | 34000 |
| Route | BEROK DCT KOXUD DCT CANNE DCT SOSON Z119 MONIN |
| Aircraft | B38M/M-SDE1FGHILORVWXY/HB1 |
Departure
| Time | 2026-05-06 13:34 |
|---|---|
| Airport | Pisa International Airport (LIRP) |
Arrival
| Time | 2026-05-06 14:22 |
|---|---|
| Airport | Bern Airport (LSZB) |
| Time | Latitude | Longitude | Altitude | Speed | Heading |
|---|---|---|---|---|---|
| 2026-05-06 13:19 | 43.68116 | 10.38528 | 14 ft | 0 kts | 127° |
| 2026-05-06 13:30 | 43.68116 | 10.38529 | 17 ft | 0 kts | 129° |
| 2026-05-06 13:30 | 43.68120 | 10.38523 | 14 ft | 2 kts | 166° |
| 2026-05-06 13:30 | 43.68136 | 10.38524 | 14 ft | 2 kts | 224° |
| 2026-05-06 13:30 | 43.68144 | 10.38541 | 14 ft | 0 kts | 270° |
| 2026-05-06 13:31 | 43.68145 | 10.38535 | 14 ft | 1 kts | 282° |
| 2026-05-06 13:31 | 43.68150 | 10.38523 | 14 ft | 0 kts | 304° |
| 2026-05-06 13:31 | 43.68162 | 10.38511 | 14 ft | 8 kts | 330° |
| 2026-05-06 13:32 | 43.68251 | 10.38564 | 15 ft | 15 kts | 36° |
| 2026-05-06 13:32 | 43.68330 | 10.38645 | 14 ft | 17 kts | 36° |
| 2026-05-06 13:32 | 43.68312 | 10.38801 | 14 ft | 19 kts | 127° |
| 2026-05-06 13:32 | 43.68273 | 10.38988 | 13 ft | 27 kts | 45° |
| 2026-05-06 13:33 | 43.68495 | 10.39221 | 17 ft | 57 kts | 37° |
| 2026-05-06 13:33 | 43.68903 | 10.39639 | 17 ft | 83 kts | 37° |
| 2026-05-06 13:33 | 43.69332 | 10.40086 | 22 ft | 58 kts | 37° |
| 2026-05-06 13:33 | 43.69329 | 10.40218 | 18 ft | 16 kts | 144° |
| 2026-05-06 13:34 | 43.69197 | 10.40271 | 19 ft | 36 kts | 214° |
| 2026-05-06 13:34 | 43.68809 | 10.39868 | 17 ft | 105 kts | 217° |
| 2026-05-06 13:34 | 43.68057 | 10.39095 | 103 ft | 157 kts | 217° |
| 2026-05-06 13:34 | 43.67128 | 10.38124 | 669 ft | 182 kts | 217° |
| 2026-05-06 13:35 | 43.66079 | 10.37044 | 1538 ft | 196 kts | 217° |
| 2026-05-06 13:35 | 43.64988 | 10.35796 | 2286 ft | 214 kts | 230° |
| 2026-05-06 13:35 | 43.64436 | 10.33780 | 3082 ft | 239 kts | 269° |
| 2026-05-06 13:35 | 43.64946 | 10.31541 | 4011 ft | 257 kts | 304° |
| 2026-05-06 13:36 | 43.66395 | 10.30040 | 5070 ft | 270 kts | 339° |
| 2026-05-06 13:36 | 43.68284 | 10.29885 | 6169 ft | 281 kts | 11° |
| 2026-05-06 13:36 | 43.70160 | 10.30657 | 7186 ft | 289 kts | 16° |
| 2026-05-06 13:36 | 43.72106 | 10.31474 | 8228 ft | 296 kts | 12° |
| 2026-05-06 13:37 | 43.74122 | 10.31901 | 9279 ft | 298 kts | 4° |
| 2026-05-06 13:37 | 43.76236 | 10.32051 | 10272 ft | 306 kts | 359° |
| 2026-05-06 13:37 | 43.78430 | 10.32100 | 10885 ft | 324 kts | 359° |
| 2026-05-06 13:37 | 43.80752 | 10.32196 | 11459 ft | 343 kts | 0° |
| 2026-05-06 13:38 | 43.83195 | 10.32383 | 11983 ft | 361 kts | 1° |
| 2026-05-06 13:38 | 43.85731 | 10.32623 | 12537 ft | 375 kts | 2° |
| 2026-05-06 13:38 | 43.88333 | 10.32870 | 13337 ft | 382 kts | 2° |
| 2026-05-06 13:38 | 43.91006 | 10.33098 | 14185 ft | 387 kts | 2° |
| 2026-05-06 13:39 | 43.93711 | 10.33308 | 15021 ft | 391 kts | 1° |
| 2026-05-06 13:39 | 43.96456 | 10.33519 | 15835 ft | 396 kts | 1° |
| 2026-05-06 13:39 | 43.99227 | 10.33741 | 16588 ft | 401 kts | 2° |
| 2026-05-06 13:39 | 44.02033 | 10.33972 | 17332 ft | 406 kts | 2° |
| 2026-05-06 13:40 | 44.04863 | 10.34207 | 18022 ft | 410 kts | 2° |
| 2026-05-06 13:40 | 44.07734 | 10.34445 | 18696 ft | 414 kts | 2° |
| 2026-05-06 13:40 | 44.10590 | 10.34678 | 19328 ft | 418 kts | 1° |
| 2026-05-06 13:40 | 44.13510 | 10.34871 | 19948 ft | 421 kts | 358° |
| 2026-05-06 13:41 | 44.16418 | 10.34453 | 20546 ft | 422 kts | 346° |
| 2026-05-06 13:41 | 44.19219 | 10.33237 | 21143 ft | 423 kts | 334° |
| 2026-05-06 13:41 | 44.21904 | 10.31414 | 21731 ft | 426 kts | 330° |
| 2026-05-06 13:41 | 44.24264 | 10.29731 | 22235 ft | 429 kts | 330° |
| 2026-05-06 13:42 | 44.26921 | 10.27801 | 22764 ft | 432 kts | 330° |
| 2026-05-06 13:42 | 44.29597 | 10.25862 | 23298 ft | 436 kts | 330° |
| 2026-05-06 13:42 | 44.32307 | 10.23922 | 23804 ft | 440 kts | 330° |
| 2026-05-06 13:42 | 44.35049 | 10.21976 | 24309 ft | 443 kts | 330° |
| 2026-05-06 13:43 | 44.37806 | 10.20017 | 24821 ft | 446 kts | 330° |
| 2026-05-06 13:43 | 44.40582 | 10.18031 | 25315 ft | 449 kts | 330° |
| 2026-05-06 13:43 | 44.43367 | 10.16026 | 25795 ft | 452 kts | 330° |
| 2026-05-06 13:43 | 44.46187 | 10.13993 | 26267 ft | 455 kts | 330° |
| 2026-05-06 13:44 | 44.49010 | 10.11961 | 26701 ft | 458 kts | 330° |
| 2026-05-06 13:44 | 44.51851 | 10.09917 | 27116 ft | 461 kts | 330° |
| 2026-05-06 13:44 | 44.54709 | 10.07863 | 27533 ft | 463 kts | 330° |
| 2026-05-06 13:44 | 44.57581 | 10.05792 | 27922 ft | 466 kts | 329° |
| 2026-05-06 13:45 | 44.60468 | 10.03706 | 28313 ft | 468 kts | 329° |
| 2026-05-06 13:45 | 44.66288 | 9.99492 | 29045 ft | 472 kts | 329° |
| 2026-05-06 13:45 | 44.69216 | 9.97370 | 29392 ft | 475 kts | 329° |
| 2026-05-06 13:46 | 44.72159 | 9.95234 | 29733 ft | 477 kts | 329° |
| 2026-05-06 13:46 | 44.75117 | 9.93087 | 30128 ft | 478 kts | 329° |
| 2026-05-06 13:46 | 44.78068 | 9.90944 | 30537 ft | 477 kts | 329° |
| 2026-05-06 13:46 | 44.81015 | 9.88799 | 30951 ft | 476 kts | 329° |
| 2026-05-06 13:47 | 44.83941 | 9.86668 | 31290 ft | 473 kts | 329° |
| 2026-05-06 13:47 | 44.86874 | 9.84527 | 31617 ft | 475 kts | 329° |
| 2026-05-06 13:47 | 44.89803 | 9.82385 | 32001 ft | 474 kts | 329° |
| 2026-05-06 13:47 | 44.92733 | 9.80243 | 32383 ft | 474 kts | 329° |
| 2026-05-06 13:48 | 44.95658 | 9.78100 | 32776 ft | 474 kts | 329° |
| 2026-05-06 13:48 | 44.98580 | 9.75958 | 33168 ft | 473 kts | 328° |
| 2026-05-06 13:48 | 45.01501 | 9.73813 | 33551 ft | 472 kts | 328° |
| 2026-05-06 13:48 | 45.04417 | 9.71670 | 33836 ft | 474 kts | 328° |
| 2026-05-06 13:49 | 45.10266 | 9.67363 | 33843 ft | 478 kts | 328° |
| 2026-05-06 13:49 | 45.16153 | 9.63022 | 33845 ft | 475 kts | 328° |
| 2026-05-06 13:50 | 45.22006 | 9.58711 | 33848 ft | 473 kts | 328° |
| 2026-05-06 13:50 | 45.27865 | 9.54437 | 33855 ft | 473 kts | 328° |
| 2026-05-06 13:51 | 45.33716 | 9.50143 | 33855 ft | 473 kts | 328° |
| 2026-05-06 13:51 | 45.39556 | 9.45836 | 33850 ft | 472 kts | 328° |
| 2026-05-06 13:52 | 45.45394 | 9.41531 | 33847 ft | 472 kts | 328° |
| 2026-05-06 13:52 | 45.51223 | 9.37223 | 33848 ft | 472 kts | 328° |
| 2026-05-06 13:53 | 45.57055 | 9.32896 | 33849 ft | 473 kts | 328° |
| 2026-05-06 13:53 | 45.62893 | 9.28560 | 33853 ft | 472 kts | 328° |
| 2026-05-06 13:54 | 45.68688 | 9.24245 | 33862 ft | 473 kts | 328° |
| 2026-05-06 13:54 | 45.74525 | 9.19885 | 33874 ft | 473 kts | 328° |
| 2026-05-06 13:55 | 45.80353 | 9.15525 | 33885 ft | 473 kts | 328° |
| 2026-05-06 13:55 | 45.86179 | 9.11155 | 33898 ft | 472 kts | 328° |
| 2026-05-06 13:56 | 45.91812 | 9.06421 | 33923 ft | 464 kts | 315° |
| 2026-05-06 13:56 | 45.96575 | 9.00207 | 33931 ft | 460 kts | 311° |
| 2026-05-06 13:57 | 46.01136 | 8.93706 | 33923 ft | 462 kts | 311° |
| 2026-05-06 13:57 | 46.05765 | 8.87266 | 33920 ft | 464 kts | 311° |
| 2026-05-06 13:58 | 46.10451 | 8.80857 | 33929 ft | 464 kts | 311° |
| 2026-05-06 13:58 | 46.15081 | 8.74362 | 33918 ft | 464 kts | 311° |
| 2026-05-06 13:59 | 46.19685 | 8.67923 | 33875 ft | 464 kts | 311° |
| 2026-05-06 13:59 | 46.24317 | 8.61435 | 33920 ft | 464 kts | 311° |
| 2026-05-06 14:00 | 46.28960 | 8.54927 | 33917 ft | 464 kts | 311° |
| 2026-05-06 14:00 | 46.33563 | 8.48450 | 33935 ft | 463 kts | 311° |
| 2026-05-06 14:01 | 46.38179 | 8.41929 | 33934 ft | 464 kts | 311° |
| 2026-05-06 14:01 | 46.42795 | 8.35408 | 33908 ft | 462 kts | 311° |
| 2026-05-06 14:02 | 46.47389 | 8.28890 | 33930 ft | 463 kts | 311° |
| 2026-05-06 14:02 | 46.52012 | 8.22315 | 33910 ft | 464 kts | 311° |
| 2026-05-06 14:03 | 46.56616 | 8.15761 | 33905 ft | 462 kts | 311° |
| 2026-05-06 14:03 | 46.58916 | 8.12475 | 33221 ft | 467 kts | 311° |
| 2026-05-06 14:03 | 46.61230 | 8.09159 | 32444 ft | 465 kts | 311° |
| 2026-05-06 14:04 | 46.63506 | 8.05904 | 31540 ft | 463 kts | 311° |
| 2026-05-06 14:04 | 46.65805 | 8.02612 | 30222 ft | 464 kts | 311° |
| 2026-05-06 14:04 | 46.68099 | 7.99302 | 28759 ft | 465 kts | 309° |
| 2026-05-06 14:04 | 46.70215 | 7.95747 | 27172 ft | 466 kts | 307° |
| 2026-05-06 14:05 | 46.72313 | 7.92125 | 25458 ft | 470 kts | 307° |
| 2026-05-06 14:05 | 46.74398 | 7.88502 | 24241 ft | 461 kts | 307° |
| 2026-05-06 14:05 | 46.76435 | 7.84952 | 22938 ft | 452 kts | 307° |
| 2026-05-06 14:05 | 46.78434 | 7.81463 | 21619 ft | 443 kts | 307° |
| 2026-05-06 14:06 | 46.80397 | 7.78039 | 20309 ft | 436 kts | 308° |
| 2026-05-06 14:06 | 46.82324 | 7.74672 | 18991 ft | 429 kts | 308° |
| 2026-05-06 14:06 | 46.84218 | 7.71361 | 17676 ft | 421 kts | 308° |
| 2026-05-06 14:06 | 46.86238 | 7.68304 | 16396 ft | 416 kts | 317° |
| 2026-05-06 14:07 | 46.88568 | 7.65836 | 15127 ft | 411 kts | 328° |
| 2026-05-06 14:07 | 46.91074 | 7.63911 | 13903 ft | 404 kts | 332° |
| 2026-05-06 14:07 | 46.92728 | 7.62691 | 13088 ft | 400 kts | 332° |
| 2026-05-06 14:07 | 46.95172 | 7.60824 | 11883 ft | 392 kts | 328° |
| 2026-05-06 14:08 | 46.97365 | 7.58527 | 10694 ft | 384 kts | 321° |
| 2026-05-06 14:08 | 46.99446 | 7.56118 | 9509 ft | 378 kts | 321° |
| 2026-05-06 14:08 | 47.01447 | 7.53765 | 9064 ft | 354 kts | 320° |
| 2026-05-06 14:08 | 47.03291 | 7.51583 | 8974 ft | 330 kts | 320° |
| 2026-05-06 14:09 | 47.05023 | 7.49539 | 8926 ft | 307 kts | 321° |
| 2026-05-06 14:09 | 47.06625 | 7.47661 | 8912 ft | 283 kts | 321° |
| 2026-05-06 14:09 | 47.08089 | 7.45851 | 8891 ft | 267 kts | 313° |
| 2026-05-06 14:09 | 47.09143 | 7.43677 | 8902 ft | 257 kts | 296° |
| 2026-05-06 14:10 | 47.09677 | 7.41256 | 8902 ft | 251 kts | 278° |
| 2026-05-06 14:10 | 47.09694 | 7.38736 | 8905 ft | 246 kts | 261° |
| 2026-05-06 14:10 | 47.09100 | 7.36435 | 8919 ft | 241 kts | 232° |
| 2026-05-06 14:10 | 47.07784 | 7.34948 | 8919 ft | 241 kts | 204° |
| 2026-05-06 14:11 | 47.06216 | 7.34132 | 8939 ft | 238 kts | 189° |
| 2026-05-06 14:11 | 47.04566 | 7.34215 | 8984 ft | 241 kts | 164° |
| 2026-05-06 14:11 | 47.03106 | 7.35379 | 9016 ft | 241 kts | 143° |
| 2026-05-06 14:11 | 47.01833 | 7.36989 | 8997 ft | 242 kts | 131° |
| 2026-05-06 14:12 | 47.00949 | 7.39072 | 9024 ft | 243 kts | 112° |
| 2026-05-06 14:12 | 47.00393 | 7.41411 | 9020 ft | 243 kts | 109° |
| 2026-05-06 14:12 | 46.99854 | 7.43761 | 9007 ft | 243 kts | 109° |
| 2026-05-06 14:12 | 46.99314 | 7.46102 | 9018 ft | 242 kts | 109° |
| 2026-05-06 14:13 | 46.98769 | 7.48438 | 9012 ft | 243 kts | 110° |
| 2026-05-06 14:13 | 46.98220 | 7.50771 | 9018 ft | 242 kts | 110° |
| 2026-05-06 14:13 | 46.97669 | 7.53106 | 9015 ft | 242 kts | 110° |
| 2026-05-06 14:13 | 46.97119 | 7.55435 | 9023 ft | 242 kts | 110° |
| 2026-05-06 14:14 | 46.96572 | 7.57768 | 9014 ft | 242 kts | 110° |
| 2026-05-06 14:14 | 46.95936 | 7.60043 | 9009 ft | 241 kts | 121° |
| 2026-05-06 14:14 | 46.94969 | 7.62048 | 9017 ft | 241 kts | 127° |
| 2026-05-06 14:14 | 46.93964 | 7.64007 | 9021 ft | 241 kts | 128° |
| 2026-05-06 14:15 | 46.92947 | 7.65967 | 8947 ft | 243 kts | 128° |
| 2026-05-06 14:15 | 46.91914 | 7.67962 | 8561 ft | 248 kts | 128° |
| 2026-05-06 14:15 | 46.90821 | 7.69904 | 8224 ft | 247 kts | 138° |
| 2026-05-06 14:15 | 46.89474 | 7.71408 | 7914 ft | 247 kts | 144° |
| 2026-05-06 14:16 | 46.88075 | 7.72867 | 7590 ft | 247 kts | 145° |
| 2026-05-06 14:16 | 46.86670 | 7.74312 | 7278 ft | 247 kts | 145° |
| 2026-05-06 14:16 | 46.85147 | 7.75416 | 6963 ft | 245 kts | 168° |
| 2026-05-06 14:16 | 46.83473 | 7.75320 | 6743 ft | 240 kts | 199° |
| 2026-05-06 14:17 | 46.82022 | 7.74237 | 6652 ft | 231 kts | 210° |
| 2026-05-06 14:17 | 46.80681 | 7.73018 | 6527 ft | 223 kts | 217° |
| 2026-05-06 14:17 | 46.79795 | 7.71219 | 6358 ft | 225 kts | 252° |
| 2026-05-06 14:17 | 46.79437 | 7.68983 | 6038 ft | 228 kts | 257° |
| 2026-05-06 14:18 | 46.79141 | 7.66777 | 5755 ft | 212 kts | 259° |
| 2026-05-06 14:18 | 46.78935 | 7.64673 | 5091 ft | 208 kts | 268° |
| 2026-05-06 14:18 | 46.79340 | 7.62693 | 4295 ft | 208 kts | 307° |
| 2026-05-06 14:18 | 46.80416 | 7.61462 | 3763 ft | 191 kts | 332° |
| 2026-05-06 14:19 | 46.81552 | 7.60722 | 3445 ft | 171 kts | 335° |
| 2026-05-06 14:19 | 46.82632 | 7.60022 | 3213 ft | 164 kts | 333° |
| 2026-05-06 14:19 | 46.83591 | 7.59194 | 3183 ft | 152 kts | 322° |
| 2026-05-06 14:19 | 46.84417 | 7.58202 | 3156 ft | 155 kts | 317° |
| 2026-05-06 14:20 | 46.85215 | 7.57209 | 2982 ft | 152 kts | 317° |
| 2026-05-06 14:20 | 46.85993 | 7.56240 | 2893 ft | 147 kts | 318° |
| 2026-05-06 14:20 | 46.86820 | 7.55313 | 2660 ft | 146 kts | 322° |
| 2026-05-06 14:20 | 46.87649 | 7.54438 | 2432 ft | 144 kts | 320° |
| 2026-05-06 14:21 | 46.88426 | 7.53487 | 2223 ft | 146 kts | 318° |
| 2026-05-06 14:21 | 46.89192 | 7.52537 | 2045 ft | 146 kts | 318° |
| 2026-05-06 14:21 | 46.89949 | 7.51578 | 1906 ft | 143 kts | 315° |
| 2026-05-06 14:21 | 46.90695 | 7.50571 | 1721 ft | 143 kts | 319° |
| 2026-05-06 14:22 | 46.91381 | 7.49749 | 1685 ft | 103 kts | 319° |
| 2026-05-06 14:22 | 46.91583 | 7.49498 | 1680 ft | 5 kts | 359° |
| 2026-05-06 14:22 | 46.91583 | 7.49511 | 1680 ft | 1 kts | 126° |
| 2026-05-06 14:22 | 46.91531 | 7.49564 | 1680 ft | 19 kts | 143° |
| 2026-05-06 14:23 | 46.91519 | 7.49674 | 1679 ft | 9 kts | 63° |
| 2026-05-06 14:23 | 46.91484 | 7.49779 | 1687 ft | 19 kts | 139° |
| 2026-05-06 14:23 | 46.91389 | 7.49896 | 1688 ft | 16 kts | 114° |
| 2026-05-06 14:23 | 46.91337 | 7.49947 | 1690 ft | 11 kts | 143° |
| 2026-05-06 14:24 | 46.91274 | 7.50025 | 1693 ft | 12 kts | 137° |
| 2026-05-06 14:24 | 46.91271 | 7.50117 | 1683 ft | 0 kts | 90° |